sensor_id;sensor_type;location;lat;lon;timestamp;temperature;humidity
18721;DHT22;9489;50.948;3.114;2022-12-18T00:00:41;-3.60;99.90
18721;DHT22;9489;50.948;3.114;2022-12-18T00:03:07;-3.60;99.90
18721;DHT22;9489;50.948;3.114;2022-12-18T00:05:32;-3.60;99.90
18721;DHT22;9489;50.948;3.114;2022-12-18T00:07:58;-3.60;99.90
18721;DHT22;9489;50.948;3.114;2022-12-18T00:10:24;-3.60;99.90
18721;DHT22;9489;50.948;3.114;2022-12-18T00:12:49;-3.60;99.90
18721;DHT22;9489;50.948;3.114;2022-12-18T00:15:15;-3.60;99.90
18721;DHT22;9489;50.948;3.114;2022-12-18T00:17:41;-3.60;99.90
18721;DHT22;9489;50.948;3.114;2022-12-18T00:20:07;-3.60;99.90
18721;DHT22;9489;50.948;3.114;2022-12-18T00:22:33;-3.60;99.90
18721;DHT22;9489;50.948;3.114;2022-12-18T00:24:58;-3.70;99.90
18721;DHT22;9489;50.948;3.114;2022-12-18T00:27:24;-3.70;99.90
18721;DHT22;9489;50.948;3.114;2022-12-18T00:29:50;-3.60;99.90
18721;DHT22;9489;50.948;3.114;2022-12-18T00:32:15;-3.70;99.90
18721;DHT22;9489;50.948;3.114;2022-12-18T00:34:41;-3.70;99.90
18721;DHT22;9489;50.948;3.114;2022-12-18T00:37:07;-3.70;99.90
18721;DHT22;9489;50.948;3.114;2022-12-18T00:39:32;-3.70;99.90
18721;DHT22;9489;50.948;3.114;2022-12-18T00:41:58;-3.70;99.90
18721;DHT22;9489;50.948;3.114;2022-12-18T00:44:42;-3.70;99.90
18721;DHT22;9489;50.948;3.114;2022-12-18T00:47:08;-3.70;99.90
18721;DHT22;9489;50.948;3.114;2022-12-18T00:49:33;-3.80;99.90
18721;DHT22;9489;50.948;3.114;2022-12-18T00:51:59;-3.80;99.90
18721;DHT22;9489;50.948;3.114;2022-12-18T00:54:25;-3.80;99.90
18721;DHT22;9489;50.948;3.114;2022-12-18T00:56:50;-3.80;99.90
18721;DHT22;9489;50.948;3.114;2022-12-18T00:59:17;-3.80;99.90
18721;DHT22;9489;50.948;3.114;2022-12-18T01:01:43;-3.80;99.90
18721;DHT22;9489;50.948;3.114;2022-12-18T01:04:10;-3.80;99.90
18721;DHT22;9489;50.948;3.114;2022-12-18T01:06:36;-3.80;99.90
18721;DHT22;9489;50.948;3.114;2022-12-18T01:09:02;-3.80;99.90
18721;DHT22;9489;50.948;3.114;2022-12-18T01:11:28;-3.80;99.90
18721;DHT22;9489;50.948;3.114;2022-12-18T01:13:54;-3.80;99.90
18721;DHT22;9489;50.948;3.114;2022-12-18T01:16:20;-3.80;99.90
18721;DHT22;9489;50.948;3.114;2022-12-18T01:18:46;-3.90;99.90
18721;DHT22;9489;50.948;3.114;2022-12-18T01:21:15;-3.80;99.90
18721;DHT22;9489;50.948;3.114;2022-12-18T01:23:41;-3.90;99.90
18721;DHT22;9489;50.948;3.114;2022-12-18T01:26:09;-3.90;99.90
18721;DHT22;9489;50.948;3.114;2022-12-18T01:28:36;-3.90;99.90
18721;DHT22;9489;50.948;3.114;2022-12-18T01:31:28;-3.90;99.90
18721;DHT22;9489;50.948;3.114;2022-12-18T01:33:55;-3.90;99.90
18721;DHT22;9489;50.948;3.114;2022-12-18T01:36:29;-3.90;99.90
18721;DHT22;9489;50.948;3.114;2022-12-18T01:38:55;-3.90;99.90
18721;DHT22;9489;50.948;3.114;2022-12-18T01:41:24;-3.90;99.90
18721;DHT22;9489;50.948;3.114;2022-12-18T01:43:56;-4.00;99.90
18721;DHT22;9489;50.948;3.114;2022-12-18T01:46:26;-4.00;99.90
18721;DHT22;9489;50.948;3.114;2022-12-18T01:48:55;-4.00;99.90
18721;DHT22;9489;50.948;3.114;2022-12-18T01:51:22;-4.00;99.90
18721;DHT22;9489;50.948;3.114;2022-12-18T01:53:48;-4.00;99.90
18721;DHT22;9489;50.948;3.114;2022-12-18T01:56:16;-4.00;99.90
18721;DHT22;9489;50.948;3.114;2022-12-18T02:01:11;-4.00;99.90
18721;DHT22;9489;50.948;3.114;2022-12-18T02:03:39;-4.00;99.90
18721;DHT22;9489;50.948;3.114;2022-12-18T02:08:48;-3.90;99.90
18721;DHT22;9489;50.948;3.114;2022-12-18T02:11:42;-3.90;99.90
18721;DHT22;9489;50.948;3.114;2022-12-18T02:17:03;-3.90;99.90
18721;DHT22;9489;50.948;3.114;2022-12-18T02:19:47;-3.90;99.90
18721;DHT22;9489;50.948;3.114;2022-12-18T02:25:41;-3.90;99.90
18721;DHT22;9489;50.948;3.114;2022-12-18T02:28:12;-3.90;99.90
18721;DHT22;9489;50.948;3.114;2022-12-18T02:30:40;-3.90;99.90
18721;DHT22;9489;50.948;3.114;2022-12-18T02:33:08;-3.90;99.90
18721;DHT22;9489;50.948;3.114;2022-12-18T02:35:36;-3.90;99.90
18721;DHT22;9489;50.948;3.114;2022-12-18T02:38:04;-3.90;99.90
18721;DHT22;9489;50.948;3.114;2022-12-18T02:40:30;-4.00;99.90
18721;DHT22;9489;50.948;3.114;2022-12-18T02:43:06;-3.90;99.90
18721;DHT22;9489;50.948;3.114;2022-12-18T02:45:32;-3.90;99.90
18721;DHT22;9489;50.948;3.114;2022-12-18T02:47:57;-3.90;99.90
18721;DHT22;9489;50.948;3.114;2022-12-18T02:50:38;-3.90;99.90
18721;DHT22;9489;50.948;3.114;2022-12-18T02:53:45;-3.90;99.90
18721;DHT22;9489;50.948;3.114;2022-12-18T02:56:20;-4.00;99.90
18721;DHT22;9489;50.948;3.114;2022-12-18T02:58:57;-3.90;99.90
18721;DHT22;9489;50.948;3.114;2022-12-18T03:04:38;-3.90;99.90
18721;DHT22;9489;50.948;3.114;2022-12-18T03:07:10;-3.80;99.90
18721;DHT22;9489;50.948;3.114;2022-12-18T03:09:41;-3.70;99.90
18721;DHT22;9489;50.948;3.114;2022-12-18T03:12:32;-3.60;99.90
18721;DHT22;9489;50.948;3.114;2022-12-18T03:15:23;-3.60;99.90
18721;DHT22;9489;50.948;3.114;2022-12-18T03:17:55;-3.50;99.90
18721;DHT22;9489;50.948;3.114;2022-12-18T03:20:23;-3.50;99.90
18721;DHT22;9489;50.948;3.114;2022-12-18T03:22:55;-3.50;99.90
18721;DHT22;9489;50.948;3.114;2022-12-18T03:25:24;-3.50;99.90
18721;DHT22;9489;50.948;3.114;2022-12-18T03:27:55;-3.40;99.90
18721;DHT22;9489;50.948;3.114;2022-12-18T03:30:22;-3.40;99.90
18721;DHT22;9489;50.948;3.114;2022-12-18T03:32:52;-3.40;99.90
18721;DHT22;9489;50.948;3.114;2022-12-18T03:35:26;-3.40;99.90
18721;DHT22;9489;50.948;3.114;2022-12-18T03:37:53;-3.50;99.90
18721;DHT22;9489;50.948;3.114;2022-12-18T03:40:23;-3.50;99.90
18721;DHT22;9489;50.948;3.114;2022-12-18T03:43:05;-3.50;99.90
18721;DHT22;9489;50.948;3.114;2022-12-18T03:45:37;-3.50;99.90
18721;DHT22;9489;50.948;3.114;2022-12-18T03:48:14;-3.50;99.90
18721;DHT22;9489;50.948;3.114;2022-12-18T03:50:56;-3.60;99.90
18721;DHT22;9489;50.948;3.114;2022-12-18T03:53:39;-3.50;99.90
18721;DHT22;9489;50.948;3.114;2022-12-18T03:56:08;-3.60;99.90
18721;DHT22;9489;50.948;3.114;2022-12-18T03:58:35;-3.60;99.90
18721;DHT22;9489;50.948;3.114;2022-12-18T04:01:06;-3.60;99.90
18721;DHT22;9489;50.948;3.114;2022-12-18T04:03:34;-3.60;99.90
18721;DHT22;9489;50.948;3.114;2022-12-18T04:06:02;-3.60;99.90
18721;DHT22;9489;50.948;3.114;2022-12-18T04:08:29;-3.60;99.90
18721;DHT22;9489;50.948;3.114;2022-12-18T04:10:55;-3.60;99.90
18721;DHT22;9489;50.948;3.114;2022-12-18T04:13:27;-3.60;99.90
18721;DHT22;9489;50.948;3.114;2022-12-18T04:15:53;-3.60;99.90
18721;DHT22;9489;50.948;3.114;2022-12-18T04:18:19;-3.60;99.90
18721;DHT22;9489;50.948;3.114;2022-12-18T04:20:45;-3.60;99.90
18721;DHT22;9489;50.948;3.114;2022-12-18T04:23:10;-3.60;99.90
18721;DHT22;9489;50.948;3.114;2022-12-18T04:25:36;-3.70;99.90
18721;DHT22;9489;50.948;3.114;2022-12-18T04:28:02;-3.70;99.90
18721;DHT22;9489;50.948;3.114;2022-12-18T04:30:27;-3.70;99.90
18721;DHT22;9489;50.948;3.114;2022-12-18T04:32:53;-3.70;99.90
18721;DHT22;9489;50.948;3.114;2022-12-18T04:35:18;-3.70;99.90
18721;DHT22;9489;50.948;3.114;2022-12-18T04:37:44;-3.70;99.90
18721;DHT22;9489;50.948;3.114;2022-12-18T04:40:10;-3.70;99.90
18721;DHT22;9489;50.948;3.114;2022-12-18T04:42:36;-3.70;99.90
18721;DHT22;9489;50.948;3.114;2022-12-18T04:45:02;-3.70;99.90
18721;DHT22;9489;50.948;3.114;2022-12-18T04:47:27;-3.70;99.90
18721;DHT22;9489;50.948;3.114;2022-12-18T04:49:53;-3.70;99.90
18721;DHT22;9489;50.948;3.114;2022-12-18T04:52:19;-3.70;99.90
18721;DHT22;9489;50.948;3.114;2022-12-18T04:54:44;-3.80;99.90
18721;DHT22;9489;50.948;3.114;2022-12-18T04:57:10;-3.80;99.90
18721;DHT22;9489;50.948;3.114;2022-12-18T04:59:35;-3.80;99.90
18721;DHT22;9489;50.948;3.114;2022-12-18T05:02:01;-3.80;99.90
18721;DHT22;9489;50.948;3.114;2022-12-18T05:04:27;-3.80;99.90
18721;DHT22;9489;50.948;3.114;2022-12-18T05:06:52;-3.90;99.90
18721;DHT22;9489;50.948;3.114;2022-12-18T05:09:18;-3.90;99.90
18721;DHT22;9489;50.948;3.114;2022-12-18T05:11:43;-3.90;99.90
18721;DHT22;9489;50.948;3.114;2022-12-18T05:14:09;-3.80;99.90
18721;DHT22;9489;50.948;3.114;2022-12-18T05:16:35;-3.80;99.90
18721;DHT22;9489;50.948;3.114;2022-12-18T05:19:00;-3.80;99.90
18721;DHT22;9489;50.948;3.114;2022-12-18T05:21:26;-3.80;99.90
18721;DHT22;9489;50.948;3.114;2022-12-18T05:23:52;-3.80;99.90
18721;DHT22;9489;50.948;3.114;2022-12-18T05:26:18;-3.80;99.90
18721;DHT22;9489;50.948;3.114;2022-12-18T05:28:44;-3.80;99.90
18721;DHT22;9489;50.948;3.114;2022-12-18T05:31:10;-3.80;99.90
18721;DHT22;9489;50.948;3.114;2022-12-18T05:33:36;-3.80;99.90
18721;DHT22;9489;50.948;3.114;2022-12-18T05:36:03;-3.80;99.90
18721;DHT22;9489;50.948;3.114;2022-12-18T05:38:31;-3.80;99.90
18721;DHT22;9489;50.948;3.114;2022-12-18T05:40:57;-3.80;99.90
18721;DHT22;9489;50.948;3.114;2022-12-18T05:43:24;-3.90;99.90
18721;DHT22;9489;50.948;3.114;2022-12-18T05:45:50;-3.90;99.90
18721;DHT22;9489;50.948;3.114;2022-12-18T05:48:17;-4.00;99.90
18721;DHT22;9489;50.948;3.114;2022-12-18T05:50:44;-3.90;99.90
18721;DHT22;9489;50.948;3.114;2022-12-18T05:53:15;-4.00;99.90
18721;DHT22;9489;50.948;3.114;2022-12-18T05:55:41;-4.00;99.90
18721;DHT22;9489;50.948;3.114;2022-12-18T05:58:09;-4.00;99.90
18721;DHT22;9489;50.948;3.114;2022-12-18T06:00:36;-4.00;99.90
18721;DHT22;9489;50.948;3.114;2022-12-18T06:03:05;-4.00;99.90
18721;DHT22;9489;50.948;3.114;2022-12-18T06:05:35;-4.00;99.90
18721;DHT22;9489;50.948;3.114;2022-12-18T06:08:02;-4.10;99.90
18721;DHT22;9489;50.948;3.114;2022-12-18T06:10:28;-4.00;99.90
18721;DHT22;9489;50.948;3.114;2022-12-18T06:12:53;-4.00;99.90
18721;DHT22;9489;50.948;3.114;2022-12-18T06:15:19;-3.90;99.90
18721;DHT22;9489;50.948;3.114;2022-12-18T06:17:45;-3.90;99.90
18721;DHT22;9489;50.948;3.114;2022-12-18T06:20:10;-3.90;99.90
18721;DHT22;9489;50.948;3.114;2022-12-18T06:22:36;-3.90;99.90
18721;DHT22;9489;50.948;3.114;2022-12-18T06:25:02;-3.90;99.90
18721;DHT22;9489;50.948;3.114;2022-12-18T06:27:27;-3.90;99.90
18721;DHT22;9489;50.948;3.114;2022-12-18T06:29:53;-3.90;99.90
18721;DHT22;9489;50.948;3.114;2022-12-18T06:32:19;-3.90;99.90
18721;DHT22;9489;50.948;3.114;2022-12-18T06:34:44;-3.90;99.90
18721;DHT22;9489;50.948;3.114;2022-12-18T06:37:10;-3.90;99.90
18721;DHT22;9489;50.948;3.114;2022-12-18T06:39:35;-3.90;99.90
18721;DHT22;9489;50.948;3.114;2022-12-18T06:42:01;-3.90;99.90
18721;DHT22;9489;50.948;3.114;2022-12-18T06:44:26;-3.90;99.90
18721;DHT22;9489;50.948;3.114;2022-12-18T06:46:52;-3.90;99.90
18721;DHT22;9489;50.948;3.114;2022-12-18T06:49:17;-3.90;99.90
18721;DHT22;9489;50.948;3.114;2022-12-18T06:51:43;-3.90;99.90
18721;DHT22;9489;50.948;3.114;2022-12-18T06:54:09;-3.80;99.90
18721;DHT22;9489;50.948;3.114;2022-12-18T06:56:34;-3.90;99.90
18721;DHT22;9489;50.948;3.114;2022-12-18T06:59:00;-3.80;99.90
18721;DHT22;9489;50.948;3.114;2022-12-18T07:01:26;-3.80;99.90
18721;DHT22;9489;50.948;3.114;2022-12-18T07:03:56;-3.80;99.90
18721;DHT22;9489;50.948;3.114;2022-12-18T07:06:23;-3.80;99.90
18721;DHT22;9489;50.948;3.114;2022-12-18T07:08:51;-3.80;99.90
18721;DHT22;9489;50.948;3.114;2022-12-18T07:11:17;-3.80;99.90
18721;DHT22;9489;50.948;3.114;2022-12-18T07:13:44;-3.80;99.90
18721;DHT22;9489;50.948;3.114;2022-12-18T07:16:15;-3.90;99.90
18721;DHT22;9489;50.948;3.114;2022-12-18T07:18:41;-3.90;99.90
18721;DHT22;9489;50.948;3.114;2022-12-18T07:21:09;-3.90;99.90
18721;DHT22;9489;50.948;3.114;2022-12-18T07:23:35;-3.90;99.90
18721;DHT22;9489;50.948;3.114;2022-12-18T07:26:03;-3.90;99.90
18721;DHT22;9489;50.948;3.114;2022-12-18T07:28:30;-3.90;99.90
18721;DHT22;9489;50.948;3.114;2022-12-18T07:30:56;-3.90;99.90
18721;DHT22;9489;50.948;3.114;2022-12-18T07:33:21;-3.90;99.90
18721;DHT22;9489;50.948;3.114;2022-12-18T07:35:47;-3.90;99.90
18721;DHT22;9489;50.948;3.114;2022-12-18T07:38:13;-3.90;99.90
18721;DHT22;9489;50.948;3.114;2022-12-18T07:40:39;-3.80;99.90
18721;DHT22;9489;50.948;3.114;2022-12-18T07:43:05;-3.80;99.90
18721;DHT22;9489;50.948;3.114;2022-12-18T07:45:31;-3.80;99.90
18721;DHT22;9489;50.948;3.114;2022-12-18T07:47:56;-3.70;99.90
18721;DHT22;9489;50.948;3.114;2022-12-18T07:50:23;-3.70;99.90
18721;DHT22;9489;50.948;3.114;2022-12-18T07:52:49;-3.70;99.90
18721;DHT22;9489;50.948;3.114;2022-12-18T07:55:15;-3.50;99.90
18721;DHT22;9489;50.948;3.114;2022-12-18T07:57:40;-3.50;99.90
18721;DHT22;9489;50.948;3.114;2022-12-18T08:00:06;-3.40;99.90
18721;DHT22;9489;50.948;3.114;2022-12-18T08:02:32;-3.20;99.90
18721;DHT22;9489;50.948;3.114;2022-12-18T08:04:58;-3.20;99.90
18721;DHT22;9489;50.948;3.114;2022-12-18T08:07:23;-3.10;99.90
18721;DHT22;9489;50.948;3.114;2022-12-18T08:09:49;-3.00;99.90
18721;DHT22;9489;50.948;3.114;2022-12-18T08:12:15;-3.00;99.90
18721;DHT22;9489;50.948;3.114;2022-12-18T08:14:40;-3.00;99.90
18721;DHT22;9489;50.948;3.114;2022-12-18T08:17:06;-2.90;99.90
18721;DHT22;9489;50.948;3.114;2022-12-18T08:19:32;-2.90;99.90
18721;DHT22;9489;50.948;3.114;2022-12-18T08:21:57;-2.80;99.90
18721;DHT22;9489;50.948;3.114;2022-12-18T08:24:23;-2.80;99.90
18721;DHT22;9489;50.948;3.114;2022-12-18T08:26:48;-2.70;99.90
18721;DHT22;9489;50.948;3.114;2022-12-18T08:29:14;-2.80;99.90
18721;DHT22;9489;50.948;3.114;2022-12-18T08:31:40;-2.70;99.90
18721;DHT22;9489;50.948;3.114;2022-12-18T08:34:07;-2.70;99.90
18721;DHT22;9489;50.948;3.114;2022-12-18T08:36:33;-2.70;99.90
18721;DHT22;9489;50.948;3.114;2022-12-18T08:38:59;-2.70;99.90
18721;DHT22;9489;50.948;3.114;2022-12-18T08:41:24;-2.70;99.90
18721;DHT22;9489;50.948;3.114;2022-12-18T08:43:50;-2.60;99.90
18721;DHT22;9489;50.948;3.114;2022-12-18T08:46:39;-2.60;99.90
18721;DHT22;9489;50.948;3.114;2022-12-18T08:49:06;-2.60;99.90
18721;DHT22;9489;50.948;3.114;2022-12-18T08:51:32;-2.60;99.90
18721;DHT22;9489;50.948;3.114;2022-12-18T08:53:58;-2.60;99.90
18721;DHT22;9489;50.948;3.114;2022-12-18T08:56:24;-2.60;99.90
18721;DHT22;9489;50.948;3.114;2022-12-18T08:58:54;-2.50;99.90
18721;DHT22;9489;50.948;3.114;2022-12-18T09:01:20;-2.50;99.90
18721;DHT22;9489;50.948;3.114;2022-12-18T09:03:46;-2.50;99.90
18721;DHT22;9489;50.948;3.114;2022-12-18T09:06:14;-2.40;99.90
18721;DHT22;9489;50.948;3.114;2022-12-18T09:08:41;-2.40;99.90
18721;DHT22;9489;50.948;3.114;2022-12-18T09:11:13;-2.40;99.90
18721;DHT22;9489;50.948;3.114;2022-12-18T09:13:39;-2.40;99.90
18721;DHT22;9489;50.948;3.114;2022-12-18T09:16:05;-2.30;99.90
18721;DHT22;9489;50.948;3.114;2022-12-18T09:18:30;-2.30;99.90
18721;DHT22;9489;50.948;3.114;2022-12-18T09:20:56;-2.30;99.90
18721;DHT22;9489;50.948;3.114;2022-12-18T09:23:22;-2.30;99.90
18721;DHT22;9489;50.948;3.114;2022-12-18T09:25:48;-2.30;99.90
18721;DHT22;9489;50.948;3.114;2022-12-18T09:28:16;-2.30;99.90
18721;DHT22;9489;50.948;3.114;2022-12-18T09:30:45;-2.20;99.90
18721;DHT22;9489;50.948;3.114;2022-12-18T09:33:11;-2.20;99.90
18721;DHT22;9489;50.948;3.114;2022-12-18T09:35:37;-2.20;99.90
18721;DHT22;9489;50.948;3.114;2022-12-18T09:38:03;-2.20;99.90
18721;DHT22;9489;50.948;3.114;2022-12-18T09:40:40;-2.20;99.90
18721;DHT22;9489;50.948;3.114;2022-12-18T09:43:09;-2.10;99.90
18721;DHT22;9489;50.948;3.114;2022-12-18T09:45:46;-2.10;99.90
18721;DHT22;9489;50.948;3.114;2022-12-18T09:48:40;-2.10;99.90
18721;DHT22;9489;50.948;3.114;2022-12-18T09:51:15;-2.10;99.90
18721;DHT22;9489;50.948;3.114;2022-12-18T09:53:46;-2.10;99.90
18721;DHT22;9489;50.948;3.114;2022-12-18T09:56:16;-2.00;99.90
18721;DHT22;9489;50.948;3.114;2022-12-18T09:58:48;-2.10;99.90
18721;DHT22;9489;50.948;3.114;2022-12-18T10:01:20;-2.00;99.90
18721;DHT22;9489;50.948;3.114;2022-12-18T10:03:47;-2.00;99.90
18721;DHT22;9489;50.948;3.114;2022-12-18T10:09:16;-2.00;99.90
18721;DHT22;9489;50.948;3.114;2022-12-18T10:11:52;-2.00;99.90
18721;DHT22;9489;50.948;3.114;2022-12-18T10:14:36;-1.90;99.90
18721;DHT22;9489;50.948;3.114;2022-12-18T10:20:21;-1.90;99.90
18721;DHT22;9489;50.948;3.114;2022-12-18T10:28:35;-1.70;99.90
18721;DHT22;9489;50.948;3.114;2022-12-18T10:31:01;-1.80;99.90
18721;DHT22;9489;50.948;3.114;2022-12-18T10:33:31;-1.70;99.90
18721;DHT22;9489;50.948;3.114;2022-12-18T10:35:58;-1.70;99.90
18721;DHT22;9489;50.948;3.114;2022-12-18T10:38:29;-1.70;99.90
18721;DHT22;9489;50.948;3.114;2022-12-18T10:44:21;-1.60;99.90
18721;DHT22;9489;50.948;3.114;2022-12-18T10:46:54;-1.60;99.90
18721;DHT22;9489;50.948;3.114;2022-12-18T10:49:25;-1.60;99.90
18721;DHT22;9489;50.948;3.114;2022-12-18T10:51:51;-1.60;99.90
18721;DHT22;9489;50.948;3.114;2022-12-18T10:54:30;-1.60;99.90
18721;DHT22;9489;50.948;3.114;2022-12-18T10:57:14;-1.50;99.90
18721;DHT22;9489;50.948;3.114;2022-12-18T10:59:54;-1.60;99.90
18721;DHT22;9489;50.948;3.114;2022-12-18T11:02:35;-1.50;99.90
18721;DHT22;9489;50.948;3.114;2022-12-18T11:05:25;-1.50;99.90
18721;DHT22;9489;50.948;3.114;2022-12-18T11:07:49;-1.50;99.90
18721;DHT22;9489;50.948;3.114;2022-12-18T11:10:21;-1.40;99.90
18721;DHT22;9489;50.948;3.114;2022-12-18T11:12:47;-1.40;99.90
18721;DHT22;9489;50.948;3.114;2022-12-18T11:15:19;-1.40;99.90
18721;DHT22;9489;50.948;3.114;2022-12-18T11:17:48;-1.40;99.90
18721;DHT22;9489;50.948;3.114;2022-12-18T11:20:34;-1.40;99.90
18721;DHT22;9489;50.948;3.114;2022-12-18T11:23:05;-1.40;99.90
18721;DHT22;9489;50.948;3.114;2022-12-18T11:25:36;-1.30;99.90
18721;DHT22;9489;50.948;3.114;2022-12-18T11:29:07;-1.30;99.90
18721;DHT22;9489;50.948;3.114;2022-12-18T11:33:50;-1.30;99.90
18721;DHT22;9489;50.948;3.114;2022-12-18T11:36:19;-1.20;99.90
18721;DHT22;9489;50.948;3.114;2022-12-18T11:38:46;-1.20;99.90
18721;DHT22;9489;50.948;3.114;2022-12-18T11:41:20;-1.20;99.90
18721;DHT22;9489;50.948;3.114;2022-12-18T11:43:51;-1.20;99.90
18721;DHT22;9489;50.948;3.114;2022-12-18T11:49:03;-1.20;99.90
18721;DHT22;9489;50.948;3.114;2022-12-18T11:51:36;-1.20;99.90
18721;DHT22;9489;50.948;3.114;2022-12-18T11:54:13;-1.10;99.90
18721;DHT22;9489;50.948;3.114;2022-12-18T11:56:48;-1.10;99.90
18721;DHT22;9489;50.948;3.114;2022-12-18T12:18:09;-0.90;99.90
18721;DHT22;9489;50.948;3.114;2022-12-18T12:20:52;-0.90;99.90
18721;DHT22;9489;50.948;3.114;2022-12-18T12:28:52;-0.90;99.90
18721;DHT22;9489;50.948;3.114;2022-12-18T12:39:28;-0.70;99.90
18721;DHT22;9489;50.948;3.114;2022-12-18T12:41:56;-0.70;99.90
18721;DHT22;9489;50.948;3.114;2022-12-18T12:44:48;-0.70;99.90
18721;DHT22;9489;50.948;3.114;2022-12-18T12:47:22;-0.70;99.90
18721;DHT22;9489;50.948;3.114;2022-12-18T12:49:49;-0.70;99.90
18721;DHT22;9489;50.948;3.114;2022-12-18T12:52:24;-0.70;99.90
18721;DHT22;9489;50.948;3.114;2022-12-18T12:54:53;-0.70;99.90
18721;DHT22;9489;50.948;3.114;2022-12-18T13:00:06;-0.70;99.90
18721;DHT22;9489;50.948;3.114;2022-12-18T13:08:00;-0.60;99.90
18721;DHT22;9489;50.948;3.114;2022-12-18T13:10:33;-0.60;99.90
18721;DHT22;9489;50.948;3.114;2022-12-18T13:20:36;-0.60;99.90
18721;DHT22;9489;50.948;3.114;2022-12-18T13:28:49;-0.60;99.90
18721;DHT22;9489;50.948;3.114;2022-12-18T13:31:03;-0.60;99.90
18721;DHT22;9489;50.948;3.114;2022-12-18T13:41:43;-0.60;99.90
18721;DHT22;9489;50.948;3.114;2022-12-18T13:44:28;-0.50;99.90
18721;DHT22;9489;50.948;3.114;2022-12-18T13:46:56;-0.60;99.90
18721;DHT22;9489;50.948;3.114;2022-12-18T13:49:41;-0.50;99.90
18721;DHT22;9489;50.948;3.114;2022-12-18T13:52:36;-0.60;99.90
18721;DHT22;9489;50.948;3.114;2022-12-18T13:55:06;-0.50;99.90
18721;DHT22;9489;50.948;3.114;2022-12-18T13:57:37;-0.60;99.90
18721;DHT22;9489;50.948;3.114;2022-12-18T14:00:26;-0.50;99.90
18721;DHT22;9489;50.948;3.114;2022-12-18T14:02:53;-0.60;99.90
18721;DHT22;9489;50.948;3.114;2022-12-18T14:05:23;-0.60;99.90
18721;DHT22;9489;50.948;3.114;2022-12-18T14:07:49;-0.50;99.90
18721;DHT22;9489;50.948;3.114;2022-12-18T14:10:15;-0.60;99.90
18721;DHT22;9489;50.948;3.114;2022-12-18T14:12:45;-0.50;99.90
18721;DHT22;9489;50.948;3.114;2022-12-18T14:18:01;-0.50;99.90
18721;DHT22;9489;50.948;3.114;2022-12-18T14:20:30;-0.50;99.90
18721;DHT22;9489;50.948;3.114;2022-12-18T14:22:57;-0.50;99.90
18721;DHT22;9489;50.948;3.114;2022-12-18T14:25:24;-0.50;99.90
18721;DHT22;9489;50.948;3.114;2022-12-18T14:30:37;-0.50;99.90
18721;DHT22;9489;50.948;3.114;2022-12-18T14:33:13;-0.50;99.90
18721;DHT22;9489;50.948;3.114;2022-12-18T14:35:59;-0.50;99.90
18721;DHT22;9489;50.948;3.114;2022-12-18T14:38:36;-0.50;99.90
18721;DHT22;9489;50.948;3.114;2022-12-18T14:41:05;-0.40;99.90
18721;DHT22;9489;50.948;3.114;2022-12-18T14:43:36;-0.40;99.90
18721;DHT22;9489;50.948;3.114;2022-12-18T14:46:04;-0.40;99.90
18721;DHT22;9489;50.948;3.114;2022-12-18T14:48:40;-0.40;99.90
18721;DHT22;9489;50.948;3.114;2022-12-18T14:53:56;-0.40;99.90
18721;DHT22;9489;50.948;3.114;2022-12-18T14:56:34;-0.40;99.90
18721;DHT22;9489;50.948;3.114;2022-12-18T15:04:34;-0.30;99.90
18721;DHT22;9489;50.948;3.114;2022-12-18T15:09:39;-0.30;99.90
18721;DHT22;9489;50.948;3.114;2022-12-18T15:12:15;-0.30;99.90
18721;DHT22;9489;50.948;3.114;2022-12-18T15:14:45;-0.30;99.90
18721;DHT22;9489;50.948;3.114;2022-12-18T15:17:23;-0.30;99.90
18721;DHT22;9489;50.948;3.114;2022-12-18T15:19:52;-0.30;99.90
18721;DHT22;9489;50.948;3.114;2022-12-18T15:22:36;-0.30;99.90
18721;DHT22;9489;50.948;3.114;2022-12-18T15:27:54;-0.30;99.90
18721;DHT22;9489;50.948;3.114;2022-12-18T15:30:24;-0.30;99.90
18721;DHT22;9489;50.948;3.114;2022-12-18T15:32:50;-0.30;99.90
18721;DHT22;9489;50.948;3.114;2022-12-18T15:35:24;-0.30;99.90
18721;DHT22;9489;50.948;3.114;2022-12-18T15:37:51;-0.30;99.90
18721;DHT22;9489;50.948;3.114;2022-12-18T15:40:20;-0.30;99.90
18721;DHT22;9489;50.948;3.114;2022-12-18T15:42:46;-0.30;99.90
18721;DHT22;9489;50.948;3.114;2022-12-18T15:45:31;-0.30;99.90
18721;DHT22;9489;50.948;3.114;2022-12-18T15:47:56;-0.30;99.90
18721;DHT22;9489;50.948;3.114;2022-12-18T15:50:22;-0.20;99.90
18721;DHT22;9489;50.948;3.114;2022-12-18T15:52:50;-0.30;99.90
18721;DHT22;9489;50.948;3.114;2022-12-18T15:55:21;-0.20;99.90
18721;DHT22;9489;50.948;3.114;2022-12-18T15:58:07;-0.20;99.90
18721;DHT22;9489;50.948;3.114;2022-12-18T16:00:34;-0.20;99.90
18721;DHT22;9489;50.948;3.114;2022-12-18T16:03:00;-0.20;99.90
18721;DHT22;9489;50.948;3.114;2022-12-18T16:05:26;-0.20;99.90
18721;DHT22;9489;50.948;3.114;2022-12-18T16:07:52;-0.10;99.90
18721;DHT22;9489;50.948;3.114;2022-12-18T16:10:19;-0.10;99.90
18721;DHT22;9489;50.948;3.114;2022-12-18T16:12:44;-0.10;99.90
18721;DHT22;9489;50.948;3.114;2022-12-18T16:15:12;-0.10;99.90
18721;DHT22;9489;50.948;3.114;2022-12-18T16:17:39;-0.10;99.90
18721;DHT22;9489;50.948;3.114;2022-12-18T16:20:08;-0.10;99.90
18721;DHT22;9489;50.948;3.114;2022-12-18T16:22:37;0.00;99.90
18721;DHT22;9489;50.948;3.114;2022-12-18T16:25:03;0.00;99.90
18721;DHT22;9489;50.948;3.114;2022-12-18T16:27:30;0.00;99.90
18721;DHT22;9489;50.948;3.114;2022-12-18T16:29:56;0.00;99.90
18721;DHT22;9489;50.948;3.114;2022-12-18T16:32:21;0.00;99.90
18721;DHT22;9489;50.948;3.114;2022-12-18T16:34:47;0.00;99.90
18721;DHT22;9489;50.948;3.114;2022-12-18T16:37:15;0.00;99.90
18721;DHT22;9489;50.948;3.114;2022-12-18T16:39:40;0.00;99.90
18721;DHT22;9489;50.948;3.114;2022-12-18T16:42:17;0.10;99.90
18721;DHT22;9489;50.948;3.114;2022-12-18T16:44:45;0.10;99.90
18721;DHT22;9489;50.948;3.114;2022-12-18T16:47:11;0.10;99.90
18721;DHT22;9489;50.948;3.114;2022-12-18T16:49:37;0.10;99.90
18721;DHT22;9489;50.948;3.114;2022-12-18T16:52:04;0.20;99.90
18721;DHT22;9489;50.948;3.114;2022-12-18T16:54:30;0.20;99.90
18721;DHT22;9489;50.948;3.114;2022-12-18T16:56:57;0.20;99.90
18721;DHT22;9489;50.948;3.114;2022-12-18T16:59:23;0.30;99.90
18721;DHT22;9489;50.948;3.114;2022-12-18T17:01:50;0.30;99.90
18721;DHT22;9489;50.948;3.114;2022-12-18T17:04:16;0.30;99.90
18721;DHT22;9489;50.948;3.114;2022-12-18T17:06:44;0.30;99.90
18721;DHT22;9489;50.948;3.114;2022-12-18T17:09:13;0.30;99.90
18721;DHT22;9489;50.948;3.114;2022-12-18T17:11:40;0.30;99.90
18721;DHT22;9489;50.948;3.114;2022-12-18T17:14:10;0.30;99.90
18721;DHT22;9489;50.948;3.114;2022-12-18T17:16:37;0.40;99.90
18721;DHT22;9489;50.948;3.114;2022-12-18T17:19:03;0.30;99.90
18721;DHT22;9489;50.948;3.114;2022-12-18T17:21:29;0.40;99.90
18721;DHT22;9489;50.948;3.114;2022-12-18T17:23:58;0.40;99.90
18721;DHT22;9489;50.948;3.114;2022-12-18T17:26:24;0.40;99.90
18721;DHT22;9489;50.948;3.114;2022-12-18T17:28:50;0.40;99.90
18721;DHT22;9489;50.948;3.114;2022-12-18T17:31:20;0.40;99.90
18721;DHT22;9489;50.948;3.114;2022-12-18T17:33:47;0.40;99.90
18721;DHT22;9489;50.948;3.114;2022-12-18T17:36:13;0.40;99.90
18721;DHT22;9489;50.948;3.114;2022-12-18T17:38:42;0.50;99.90
18721;DHT22;9489;50.948;3.114;2022-12-18T17:41:09;0.50;99.90
18721;DHT22;9489;50.948;3.114;2022-12-18T17:43:36;0.50;99.90
18721;DHT22;9489;50.948;3.114;2022-12-18T17:46:06;0.50;99.90
18721;DHT22;9489;50.948;3.114;2022-12-18T17:48:32;0.50;99.90
18721;DHT22;9489;50.948;3.114;2022-12-18T17:51:02;0.50;99.90
18721;DHT22;9489;50.948;3.114;2022-12-18T17:53:29;0.60;99.90
18721;DHT22;9489;50.948;3.114;2022-12-18T17:55:58;0.60;99.90